VILK/LKO METAR and TAF weather

Enter ICAO airport designator
Station Type Date Time Source
VILK METAR 2019/06/18 14:30 UTC NOAA

VILK 181430Z 27007KT 3500 HZ SCT020 BKN100 33/16 Q0999 NOSIG


Station Type Date Time Source
VILK Decoded METAR 2019/06/18 14:30 UTC NOAA

Lucknow / Amausi, India (VILK) 26-45N 080-53E 128M
Jun 18, 2019 - 10:30 AM EDT / 2019.06.18 1430 UTC
Wind: from the W (270 degrees) at 8 MPH (7 KT):0
Visibility: 2 mile(s):0
Sky conditions: mostly cloudy
Weather: haze
Temperature: 91 F (33 C)
Dew Point: 60 F (16 C)
Relative Humidity: 36%
Pressure (altimeter): 29.50 in. Hg (0999 hPa)
ob: VILK 181430Z 27007KT 3500 HZ SCT020 BKN100 33/16 Q0999 NOSIG
cycle: 14

Station Type Date Time Source
VILK TAF 2019/06/18 12:27 UTC NOAA

TAF VILK 181100Z 1812/1918 32008KT 4000 HZ FEW020 SCT100
BECMG 1814/1816 3000 HZ
BECMG 1904/1906 4000 HZ
BECMG 1914/1916 3000 HZ

Example: see airport list